Terminal Aerodrome Forecast
Issued by NWS

Home | Current Version | Previous Version | Text Only | Print | Product List | Glossary On
Versions: 1 2 3 4 5 6 7 8 9 10 11 12 13 14 15 16 17 18 19 20
512
FTUS43 KGRR 202340
TAFJXN
TAF
KJXN 202340Z 2100/2124 06005KT P6SM BKN015
     FM210100 06005KT P6SM BKN035
     FM210500 08006KT P6SM OVC015
     FM211100 09006KT P6SM OVC025
     FM211400 10010KT 5SM -RA BR OVC025
     FM212200 08010KT 5SM BR VCTS OVC015CB=

USA.gov is the U.S. government's official web portal to all federal, state and local government web resources and services.